sensor_id;sensor_type;location;lat;lon;timestamp;P1;durP1;ratioP1;P2;durP2;ratioP2
72949;SDS011;64868;45.710;9.590;2022-12-20T00:00:45;82.07;;;36.60;;
72949;SDS011;64868;45.710;9.590;2022-12-20T00:03:11;75.00;;;31.75;;
72949;SDS011;64868;45.710;9.590;2022-12-20T00:05:36;79.88;;;32.47;;
72949;SDS011;64868;45.710;9.590;2022-12-20T00:08:04;78.20;;;35.25;;
72949;SDS011;64868;45.710;9.590;2022-12-20T00:10:30;83.95;;;35.75;;
72949;SDS011;64868;45.710;9.590;2022-12-20T00:12:59;73.93;;;32.40;;
72949;SDS011;64868;45.710;9.590;2022-12-20T00:15:24;75.43;;;33.47;;
72949;SDS011;64868;45.710;9.590;2022-12-20T00:17:49;79.00;;;33.75;;
72949;SDS011;64868;45.710;9.590;2022-12-20T00:20:16;69.07;;;32.47;;
72949;SDS011;64868;45.710;9.590;2022-12-20T00:22:41;73.25;;;33.20;;
72949;SDS011;64868;45.710;9.590;2022-12-20T00:25:07;68.93;;;31.30;;
72949;SDS011;64868;45.710;9.590;2022-12-20T00:27:32;68.00;;;31.58;;
72949;SDS011;64868;45.710;9.590;2022-12-20T00:29:57;70.45;;;32.28;;
72949;SDS011;64868;45.710;9.590;2022-12-20T00:32:23;64.40;;;30.92;;
72949;SDS011;64868;45.710;9.590;2022-12-20T00:34:48;71.15;;;31.48;;
72949;SDS011;64868;45.710;9.590;2022-12-20T00:37:14;62.22;;;27.92;;
72949;SDS011;64868;45.710;9.590;2022-12-20T00:39:39;67.63;;;30.65;;
72949;SDS011;64868;45.710;9.590;2022-12-20T00:42:04;67.70;;;30.83;;
72949;SDS011;64868;45.710;9.590;2022-12-20T00:44:30;63.72;;;29.58;;
72949;SDS011;64868;45.710;9.590;2022-12-20T00:46:55;67.00;;;30.40;;
72949;SDS011;64868;45.710;9.590;2022-12-20T00:49:21;69.32;;;32.15;;
72949;SDS011;64868;45.710;9.590;2022-12-20T00:51:46;69.38;;;32.03;;
72949;SDS011;64868;45.710;9.590;2022-12-20T00:54:12;70.65;;;31.40;;
72949;SDS011;64868;45.710;9.590;2022-12-20T00:56:37;66.28;;;30.50;;
72949;SDS011;64868;45.710;9.590;2022-12-20T00:59:02;66.72;;;30.13;;
72949;SDS011;64868;45.710;9.590;2022-12-20T01:01:29;65.05;;;29.08;;
72949;SDS011;64868;45.710;9.590;2022-12-20T01:03:56;61.63;;;28.92;;
72949;SDS011;64868;45.710;9.590;2022-12-20T01:06:22;63.97;;;29.80;;
72949;SDS011;64868;45.710;9.590;2022-12-20T01:08:49;62.30;;;31.02;;
72949;SDS011;64868;45.710;9.590;2022-12-20T01:13:50;66.45;;;31.17;;
72949;SDS011;64868;45.710;9.590;2022-12-20T01:18:45;63.20;;;29.58;;
72949;SDS011;64868;45.710;9.590;2022-12-20T01:21:12;68.10;;;31.30;;
72949;SDS011;64868;45.710;9.590;2022-12-20T01:23:39;78.97;;;34.63;;
72949;SDS011;64868;45.710;9.590;2022-12-20T01:26:05;74.13;;;33.20;;
72949;SDS011;64868;45.710;9.590;2022-12-20T01:28:36;65.85;;;31.42;;
72949;SDS011;64868;45.710;9.590;2022-12-20T01:31:06;78.78;;;33.92;;
72949;SDS011;64868;45.710;9.590;2022-12-20T01:33:33;73.72;;;33.67;;
72949;SDS011;64868;45.710;9.590;2022-12-20T01:36:02;72.28;;;34.20;;
72949;SDS011;64868;45.710;9.590;2022-12-20T01:38:29;75.75;;;32.95;;
72949;SDS011;64868;45.710;9.590;2022-12-20T01:40:55;66.25;;;31.38;;
72949;SDS011;64868;45.710;9.590;2022-12-20T01:43:24;71.85;;;34.58;;
72949;SDS011;64868;45.710;9.590;2022-12-20T01:46:08;66.35;;;31.25;;
72949;SDS011;64868;45.710;9.590;2022-12-20T01:48:34;64.40;;;31.58;;
72949;SDS011;64868;45.710;9.590;2022-12-20T01:51:00;66.75;;;29.40;;
72949;SDS011;64868;45.710;9.590;2022-12-20T01:53:25;66.47;;;30.10;;
72949;SDS011;64868;45.710;9.590;2022-12-20T01:55:51;66.78;;;29.17;;
72949;SDS011;64868;45.710;9.590;2022-12-20T01:58:17;73.28;;;32.08;;
72949;SDS011;64868;45.710;9.590;2022-12-20T02:00:44;81.57;;;34.65;;
72949;SDS011;64868;45.710;9.590;2022-12-20T02:03:11;70.30;;;33.22;;
72949;SDS011;64868;45.710;9.590;2022-12-20T02:05:39;72.38;;;33.05;;
72949;SDS011;64868;45.710;9.590;2022-12-20T02:08:09;68.85;;;33.03;;
72949;SDS011;64868;45.710;9.590;2022-12-20T02:13:41;66.88;;;31.05;;
72949;SDS011;64868;45.710;9.590;2022-12-20T02:16:22;73.43;;;33.58;;
72949;SDS011;64868;45.710;9.590;2022-12-20T02:18:54;70.20;;;31.75;;
72949;SDS011;64868;45.710;9.590;2022-12-20T02:23:54;75.18;;;33.92;;
72949;SDS011;64868;45.710;9.590;2022-12-20T02:32:07;76.30;;;33.35;;
72949;SDS011;64868;45.710;9.590;2022-12-20T02:34:40;62.95;;;30.67;;
72949;SDS011;64868;45.710;9.590;2022-12-20T02:37:06;64.07;;;31.45;;
72949;SDS011;64868;45.710;9.590;2022-12-20T02:39:33;72.20;;;30.90;;
72949;SDS011;64868;45.710;9.590;2022-12-20T02:42:03;69.57;;;32.13;;
72949;SDS011;64868;45.710;9.590;2022-12-20T02:44:32;67.18;;;30.98;;
72949;SDS011;64868;45.710;9.590;2022-12-20T02:47:22;68.78;;;30.08;;
72949;SDS011;64868;45.710;9.590;2022-12-20T02:49:51;65.30;;;29.92;;
72949;SDS011;64868;45.710;9.590;2022-12-20T02:52:20;69.75;;;32.55;;
72949;SDS011;64868;45.710;9.590;2022-12-20T02:54:50;64.40;;;28.63;;
72949;SDS011;64868;45.710;9.590;2022-12-20T02:57:18;67.20;;;31.85;;
72949;SDS011;64868;45.710;9.590;2022-12-20T02:59:49;73.50;;;31.65;;
72949;SDS011;64868;45.710;9.590;2022-12-20T03:02:25;70.35;;;30.38;;
72949;SDS011;64868;45.710;9.590;2022-12-20T03:04:51;73.00;;;32.60;;
72949;SDS011;64868;45.710;9.590;2022-12-20T03:07:19;69.60;;;31.85;;
72949;SDS011;64868;45.710;9.590;2022-12-20T03:09:46;71.43;;;31.63;;
72949;SDS011;64868;45.710;9.590;2022-12-20T03:12:12;73.97;;;32.70;;
72949;SDS011;64868;45.710;9.590;2022-12-20T03:14:40;69.50;;;31.27;;
72949;SDS011;64868;45.710;9.590;2022-12-20T03:17:06;67.57;;;31.33;;
72949;SDS011;64868;45.710;9.590;2022-12-20T03:19:33;70.50;;;31.98;;
72949;SDS011;64868;45.710;9.590;2022-12-20T03:21:59;74.80;;;32.35;;
72949;SDS011;64868;45.710;9.590;2022-12-20T03:24:25;72.72;;;32.47;;
72949;SDS011;64868;45.710;9.590;2022-12-20T03:26:50;71.47;;;31.45;;
72949;SDS011;64868;45.710;9.590;2022-12-20T03:29:16;71.15;;;32.33;;
72949;SDS011;64868;45.710;9.590;2022-12-20T03:31:41;67.82;;;30.50;;
72949;SDS011;64868;45.710;9.590;2022-12-20T03:34:07;69.68;;;31.58;;
72949;SDS011;64868;45.710;9.590;2022-12-20T03:36:32;76.45;;;31.08;;
72949;SDS011;64868;45.710;9.590;2022-12-20T03:38:58;62.95;;;29.52;;
72949;SDS011;64868;45.710;9.590;2022-12-20T03:41:24;67.05;;;29.92;;
72949;SDS011;64868;45.710;9.590;2022-12-20T03:43:50;71.13;;;30.95;;
72949;SDS011;64868;45.710;9.590;2022-12-20T03:46:16;67.25;;;30.30;;
72949;SDS011;64868;45.710;9.590;2022-12-20T03:48:41;72.70;;;31.23;;
72949;SDS011;64868;45.710;9.590;2022-12-20T03:51:08;60.92;;;28.80;;
72949;SDS011;64868;45.710;9.590;2022-12-20T03:53:33;74.93;;;30.63;;
72949;SDS011;64868;45.710;9.590;2022-12-20T03:55:59;66.55;;;29.85;;
72949;SDS011;64868;45.710;9.590;2022-12-20T03:58:24;63.63;;;29.77;;
72949;SDS011;64868;45.710;9.590;2022-12-20T04:00:50;63.72;;;30.13;;
72949;SDS011;64868;45.710;9.590;2022-12-20T04:03:15;64.35;;;30.35;;
72949;SDS011;64868;45.710;9.590;2022-12-20T04:05:41;61.50;;;27.13;;
72949;SDS011;64868;45.710;9.590;2022-12-20T04:08:06;66.25;;;30.48;;
72949;SDS011;64868;45.710;9.590;2022-12-20T04:10:32;62.67;;;30.42;;
72949;SDS011;64868;45.710;9.590;2022-12-20T04:13:17;57.88;;;28.50;;
72949;SDS011;64868;45.710;9.590;2022-12-20T04:15:43;58.83;;;28.38;;
72949;SDS011;64868;45.710;9.590;2022-12-20T04:18:08;58.38;;;28.08;;
72949;SDS011;64868;45.710;9.590;2022-12-20T04:20:33;57.78;;;27.48;;
72949;SDS011;64868;45.710;9.590;2022-12-20T04:22:59;63.95;;;29.30;;
72949;SDS011;64868;45.710;9.590;2022-12-20T04:25:24;59.08;;;28.17;;
72949;SDS011;64868;45.710;9.590;2022-12-20T04:27:50;63.38;;;29.80;;
72949;SDS011;64868;45.710;9.590;2022-12-20T04:30:15;66.50;;;28.40;;
72949;SDS011;64868;45.710;9.590;2022-12-20T04:32:41;62.42;;;30.10;;
72949;SDS011;64868;45.710;9.590;2022-12-20T04:35:06;63.40;;;28.92;;
72949;SDS011;64868;45.710;9.590;2022-12-20T04:37:32;67.05;;;29.75;;
72949;SDS011;64868;45.710;9.590;2022-12-20T04:39:57;71.57;;;31.08;;
72949;SDS011;64868;45.710;9.590;2022-12-20T04:42:23;67.90;;;30.00;;
72949;SDS011;64868;45.710;9.590;2022-12-20T04:44:49;64.82;;;28.77;;
72949;SDS011;64868;45.710;9.590;2022-12-20T04:47:14;61.03;;;29.05;;
72949;SDS011;64868;45.710;9.590;2022-12-20T04:49:40;62.13;;;29.02;;
72949;SDS011;64868;45.710;9.590;2022-12-20T04:52:05;57.58;;;27.42;;
72949;SDS011;64868;45.710;9.590;2022-12-20T04:54:49;58.75;;;27.58;;
72949;SDS011;64868;45.710;9.590;2022-12-20T04:57:15;62.72;;;28.83;;
72949;SDS011;64868;45.710;9.590;2022-12-20T04:59:40;62.00;;;28.40;;
72949;SDS011;64868;45.710;9.590;2022-12-20T05:02:05;59.65;;;28.52;;
72949;SDS011;64868;45.710;9.590;2022-12-20T05:04:31;65.22;;;29.80;;
72949;SDS011;64868;45.710;9.590;2022-12-20T05:06:56;61.35;;;28.95;;
72949;SDS011;64868;45.710;9.590;2022-12-20T05:09:22;58.67;;;28.52;;
72949;SDS011;64868;45.710;9.590;2022-12-20T05:11:47;64.72;;;29.88;;
72949;SDS011;64868;45.710;9.590;2022-12-20T05:14:13;60.53;;;29.35;;
72949;SDS011;64868;45.710;9.590;2022-12-20T05:16:38;64.88;;;29.52;;
72949;SDS011;64868;45.710;9.590;2022-12-20T05:19:03;63.03;;;29.08;;
72949;SDS011;64868;45.710;9.590;2022-12-20T05:21:29;58.50;;;27.27;;
72949;SDS011;64868;45.710;9.590;2022-12-20T05:24:13;62.53;;;29.73;;
72949;SDS011;64868;45.710;9.590;2022-12-20T05:26:57;62.38;;;29.02;;
72949;SDS011;64868;45.710;9.590;2022-12-20T05:29:23;60.72;;;28.85;;
72949;SDS011;64868;45.710;9.590;2022-12-20T05:31:48;56.88;;;28.10;;
72949;SDS011;64868;45.710;9.590;2022-12-20T05:34:14;64.13;;;29.15;;
72949;SDS011;64868;45.710;9.590;2022-12-20T05:36:39;56.78;;;27.00;;
72949;SDS011;64868;45.710;9.590;2022-12-20T05:39:05;57.38;;;27.25;;
72949;SDS011;64868;45.710;9.590;2022-12-20T05:41:30;61.03;;;28.15;;
72949;SDS011;64868;45.710;9.590;2022-12-20T05:43:56;57.80;;;27.80;;
72949;SDS011;64868;45.710;9.590;2022-12-20T05:46:22;54.42;;;27.13;;
72949;SDS011;64868;45.710;9.590;2022-12-20T05:48:47;59.28;;;28.02;;
72949;SDS011;64868;45.710;9.590;2022-12-20T05:51:13;61.75;;;30.58;;
72949;SDS011;64868;45.710;9.590;2022-12-20T05:53:38;62.75;;;28.88;;
72949;SDS011;64868;45.710;9.590;2022-12-20T05:56:04;60.42;;;29.35;;
72949;SDS011;64868;45.710;9.590;2022-12-20T05:58:29;64.50;;;29.10;;
72949;SDS011;64868;45.710;9.590;2022-12-20T06:00:55;60.65;;;27.92;;
72949;SDS011;64868;45.710;9.590;2022-12-20T06:03:20;59.28;;;27.48;;
72949;SDS011;64868;45.710;9.590;2022-12-20T06:05:46;60.88;;;27.17;;
72949;SDS011;64868;45.710;9.590;2022-12-20T06:08:11;58.40;;;27.48;;
72949;SDS011;64868;45.710;9.590;2022-12-20T06:10:38;64.13;;;30.15;;
72949;SDS011;64868;45.710;9.590;2022-12-20T06:13:06;59.28;;;28.70;;
72949;SDS011;64868;45.710;9.590;2022-12-20T06:15:32;54.58;;;28.63;;
72949;SDS011;64868;45.710;9.590;2022-12-20T06:17:57;58.05;;;27.85;;
72949;SDS011;64868;45.710;9.590;2022-12-20T06:20:23;59.95;;;27.85;;
72949;SDS011;64868;45.710;9.590;2022-12-20T06:22:49;60.97;;;27.33;;
72949;SDS011;64868;45.710;9.590;2022-12-20T06:25:14;61.90;;;29.75;;
72949;SDS011;64868;45.710;9.590;2022-12-20T06:27:40;60.22;;;28.77;;
72949;SDS011;64868;45.710;9.590;2022-12-20T06:30:06;57.05;;;27.75;;
72949;SDS011;64868;45.710;9.590;2022-12-20T06:32:33;68.45;;;30.65;;
72949;SDS011;64868;45.710;9.590;2022-12-20T06:34:59;64.13;;;31.08;;
72949;SDS011;64868;45.710;9.590;2022-12-20T06:37:24;57.33;;;29.30;;
72949;SDS011;64868;45.710;9.590;2022-12-20T06:39:49;106.45;;;31.08;;
72949;SDS011;64868;45.710;9.590;2022-12-20T06:42:15;61.30;;;29.15;;
72949;SDS011;64868;45.710;9.590;2022-12-20T06:44:40;58.25;;;27.98;;
72949;SDS011;64868;45.710;9.590;2022-12-20T06:47:06;63.72;;;29.92;;
72949;SDS011;64868;45.710;9.590;2022-12-20T06:49:32;54.85;;;26.75;;
72949;SDS011;64868;45.710;9.590;2022-12-20T06:51:57;55.38;;;26.80;;
72949;SDS011;64868;45.710;9.590;2022-12-20T06:54:23;57.22;;;26.50;;
72949;SDS011;64868;45.710;9.590;2022-12-20T06:56:48;54.15;;;27.70;;
72949;SDS011;64868;45.710;9.590;2022-12-20T06:59:13;52.10;;;26.88;;
72949;SDS011;64868;45.710;9.590;2022-12-20T07:01:39;52.65;;;26.75;;
72949;SDS011;64868;45.710;9.590;2022-12-20T07:04:04;50.97;;;25.45;;
72949;SDS011;64868;45.710;9.590;2022-12-20T07:06:30;57.40;;;27.63;;
72949;SDS011;64868;45.710;9.590;2022-12-20T07:08:56;53.97;;;26.70;;
72949;SDS011;64868;45.710;9.590;2022-12-20T07:11:22;48.63;;;26.15;;
72949;SDS011;64868;45.710;9.590;2022-12-20T07:13:47;49.15;;;26.33;;
72949;SDS011;64868;45.710;9.590;2022-12-20T07:16:14;56.53;;;26.92;;
72949;SDS011;64868;45.710;9.590;2022-12-20T07:18:39;53.20;;;25.88;;
72949;SDS011;64868;45.710;9.590;2022-12-20T07:21:05;60.20;;;27.50;;
72949;SDS011;64868;45.710;9.590;2022-12-20T07:23:33;55.15;;;27.35;;
72949;SDS011;64868;45.710;9.590;2022-12-20T07:25:59;52.10;;;26.30;;
72949;SDS011;64868;45.710;9.590;2022-12-20T07:28:25;60.92;;;27.92;;
72949;SDS011;64868;45.710;9.590;2022-12-20T07:30:51;49.53;;;25.90;;
72949;SDS011;64868;45.710;9.590;2022-12-20T07:33:17;50.38;;;25.67;;
72949;SDS011;64868;45.710;9.590;2022-12-20T07:35:43;57.47;;;26.63;;
72949;SDS011;64868;45.710;9.590;2022-12-20T07:38:11;52.25;;;26.55;;
72949;SDS011;64868;45.710;9.590;2022-12-20T07:40:40;54.97;;;26.45;;
72949;SDS011;64868;45.710;9.590;2022-12-20T07:43:07;53.65;;;26.27;;
72949;SDS011;64868;45.710;9.590;2022-12-20T07:45:35;52.22;;;26.23;;
72949;SDS011;64868;45.710;9.590;2022-12-20T07:48:05;55.92;;;28.38;;
72949;SDS011;64868;45.710;9.590;2022-12-20T07:50:30;49.72;;;25.85;;
72949;SDS011;64868;45.710;9.590;2022-12-20T07:52:57;65.82;;;29.67;;
72949;SDS011;64868;45.710;9.590;2022-12-20T07:55:24;58.22;;;29.92;;
72949;SDS011;64868;45.710;9.590;2022-12-20T07:57:54;54.60;;;28.00;;
72949;SDS011;64868;45.710;9.590;2022-12-20T08:00:24;62.22;;;30.65;;
72949;SDS011;64868;45.710;9.590;2022-12-20T08:02:52;61.38;;;30.20;;
72949;SDS011;64868;45.710;9.590;2022-12-20T08:05:22;55.92;;;27.95;;
72949;SDS011;64868;45.710;9.590;2022-12-20T08:07:48;52.55;;;28.05;;
72949;SDS011;64868;45.710;9.590;2022-12-20T08:10:14;51.97;;;26.08;;
72949;SDS011;64868;45.710;9.590;2022-12-20T08:12:43;51.45;;;26.33;;
72949;SDS011;64868;45.710;9.590;2022-12-20T08:15:11;52.63;;;27.23;;
72949;SDS011;64868;45.710;9.590;2022-12-20T08:17:37;58.63;;;29.13;;
72949;SDS011;64868;45.710;9.590;2022-12-20T08:20:03;52.42;;;27.50;;
72949;SDS011;64868;45.710;9.590;2022-12-20T08:22:29;51.22;;;26.00;;
72949;SDS011;64868;45.710;9.590;2022-12-20T08:24:55;53.22;;;26.55;;
72949;SDS011;64868;45.710;9.590;2022-12-20T08:27:21;61.92;;;29.23;;
72949;SDS011;64868;45.710;9.590;2022-12-20T08:29:46;54.10;;;27.48;;
72949;SDS011;64868;45.710;9.590;2022-12-20T08:32:12;54.60;;;27.80;;
72949;SDS011;64868;45.710;9.590;2022-12-20T08:34:38;55.15;;;27.55;;
72949;SDS011;64868;45.710;9.590;2022-12-20T08:37:03;56.78;;;28.40;;
72949;SDS011;64868;45.710;9.590;2022-12-20T08:39:29;60.58;;;29.30;;
72949;SDS011;64868;45.710;9.590;2022-12-20T08:41:55;56.30;;;28.08;;
72949;SDS011;64868;45.710;9.590;2022-12-20T08:44:20;55.50;;;26.48;;
72949;SDS011;64868;45.710;9.590;2022-12-20T08:46:46;48.42;;;26.25;;
72949;SDS011;64868;45.710;9.590;2022-12-20T08:49:11;50.97;;;26.52;;
72949;SDS011;64868;45.710;9.590;2022-12-20T08:51:36;50.28;;;25.55;;
72949;SDS011;64868;45.710;9.590;2022-12-20T08:54:02;53.17;;;27.45;;
72949;SDS011;64868;45.710;9.590;2022-12-20T08:56:27;51.85;;;27.95;;
72949;SDS011;64868;45.710;9.590;2022-12-20T08:58:53;50.13;;;24.98;;
72949;SDS011;64868;45.710;9.590;2022-12-20T09:01:19;55.47;;;30.08;;
72949;SDS011;64868;45.710;9.590;2022-12-20T09:03:46;57.38;;;29.75;;
72949;SDS011;64868;45.710;9.590;2022-12-20T09:06:17;56.05;;;29.15;;
72949;SDS011;64868;45.710;9.590;2022-12-20T09:08:44;49.35;;;26.10;;
72949;SDS011;64868;45.710;9.590;2022-12-20T09:11:14;56.78;;;28.65;;
72949;SDS011;64868;45.710;9.590;2022-12-20T09:13:42;55.03;;;27.90;;
72949;SDS011;64868;45.710;9.590;2022-12-20T09:16:09;52.95;;;27.92;;
72949;SDS011;64868;45.710;9.590;2022-12-20T09:18:36;61.50;;;29.15;;
72949;SDS011;64868;45.710;9.590;2022-12-20T09:21:02;49.25;;;26.38;;
72949;SDS011;64868;45.710;9.590;2022-12-20T09:23:29;59.72;;;30.08;;
72949;SDS011;64868;45.710;9.590;2022-12-20T09:26:03;59.63;;;31.20;;
72949;SDS011;64868;45.710;9.590;2022-12-20T09:28:30;54.38;;;27.85;;
72949;SDS011;64868;45.710;9.590;2022-12-20T09:30:59;52.80;;;26.75;;
72949;SDS011;64868;45.710;9.590;2022-12-20T09:33:28;60.15;;;28.90;;
72949;SDS011;64868;45.710;9.590;2022-12-20T09:35:55;58.38;;;29.70;;
72949;SDS011;64868;45.710;9.590;2022-12-20T09:38:21;55.00;;;29.13;;
72949;SDS011;64868;45.710;9.590;2022-12-20T09:40:47;57.40;;;29.90;;
72949;SDS011;64868;45.710;9.590;2022-12-20T09:43:16;61.92;;;29.92;;
72949;SDS011;64868;45.710;9.590;2022-12-20T09:45:42;55.08;;;28.55;;
72949;SDS011;64868;45.710;9.590;2022-12-20T09:48:21;60.15;;;28.58;;
72949;SDS011;64868;45.710;9.590;2022-12-20T09:56:38;50.38;;;25.10;;
72949;SDS011;64868;45.710;9.590;2022-12-20T09:59:22;45.97;;;24.80;;
72949;SDS011;64868;45.710;9.590;2022-12-20T10:01:48;50.42;;;26.50;;
72949;SDS011;64868;45.710;9.590;2022-12-20T10:15:51;67.93;;;32.72;;
72949;SDS011;64868;45.710;9.590;2022-12-20T10:18:36;66.53;;;31.42;;
72949;SDS011;64868;45.710;9.590;2022-12-20T10:23:35;58.30;;;29.58;;
72949;SDS011;64868;45.710;9.590;2022-12-20T10:26:21;64.07;;;31.33;;
72949;SDS011;64868;45.710;9.590;2022-12-20T10:28:46;69.47;;;34.35;;
72949;SDS011;64868;45.710;9.590;2022-12-20T10:31:13;65.05;;;31.90;;
72949;SDS011;64868;45.710;9.590;2022-12-20T10:33:40;66.78;;;33.25;;
72949;SDS011;64868;45.710;9.590;2022-12-20T10:36:24;63.10;;;32.65;;
72949;SDS011;64868;45.710;9.590;2022-12-20T10:38:54;69.85;;;33.10;;
72949;SDS011;64868;45.710;9.590;2022-12-20T10:41:28;64.28;;;33.53;;
72949;SDS011;64868;45.710;9.590;2022-12-20T10:43:58;59.20;;;32.00;;
72949;SDS011;64868;45.710;9.590;2022-12-20T10:52:00;63.63;;;32.40;;
72949;SDS011;64868;45.710;9.590;2022-12-20T10:54:33;58.03;;;30.27;;
72949;SDS011;64868;45.710;9.590;2022-12-20T10:57:13;57.40;;;30.90;;
72949;SDS011;64868;45.710;9.590;2022-12-20T10:59:41;54.40;;;30.52;;
72949;SDS011;64868;45.710;9.590;2022-12-20T11:05:16;55.40;;;29.38;;
72949;SDS011;64868;45.710;9.590;2022-12-20T11:07:59;56.92;;;29.48;;
72949;SDS011;64868;45.710;9.590;2022-12-20T11:10:41;55.72;;;29.67;;
72949;SDS011;64868;45.710;9.590;2022-12-20T11:13:09;52.83;;;28.10;;
72949;SDS011;64868;45.710;9.590;2022-12-20T11:15:50;59.42;;;31.92;;
72949;SDS011;64868;45.710;9.590;2022-12-20T11:18:30;55.85;;;29.65;;
72949;SDS011;64868;45.710;9.590;2022-12-20T11:21:38;60.72;;;32.72;;
72949;SDS011;64868;45.710;9.590;2022-12-20T11:24:28;53.15;;;29.70;;
72949;SDS011;64868;45.710;9.590;2022-12-20T11:38:02;51.65;;;29.42;;
72949;SDS011;64868;45.710;9.590;2022-12-20T11:40:33;50.08;;;27.58;;
72949;SDS011;64868;45.710;9.590;2022-12-20T11:43:11;48.67;;;27.80;;
72949;SDS011;64868;45.710;9.590;2022-12-20T11:53:56;50.53;;;28.30;;
72949;SDS011;64868;45.710;9.590;2022-12-20T11:56:33;53.08;;;28.52;;
72949;SDS011;64868;45.710;9.590;2022-12-20T11:59:06;55.17;;;30.52;;
72949;SDS011;64868;45.710;9.590;2022-12-20T12:01:44;54.38;;;29.92;;
72949;SDS011;64868;45.710;9.590;2022-12-20T12:04:21;54.83;;;28.50;;
72949;SDS011;64868;45.710;9.590;2022-12-20T12:07:01;52.60;;;26.17;;
72949;SDS011;64868;45.710;9.590;2022-12-20T12:09:35;59.65;;;32.42;;
72949;SDS011;64868;45.710;9.590;2022-12-20T12:23:01;42.20;;;24.55;;
72949;SDS011;64868;45.710;9.590;2022-12-20T12:27:59;44.83;;;25.30;;
72949;SDS011;64868;45.710;9.590;2022-12-20T12:30:25;54.50;;;28.50;;
72949;SDS011;64868;45.710;9.590;2022-12-20T12:32:59;51.65;;;27.95;;
72949;SDS011;64868;45.710;9.590;2022-12-20T12:38:22;50.08;;;28.23;;
72949;SDS011;64868;45.710;9.590;2022-12-20T12:51:27;46.47;;;27.10;;
72949;SDS011;64868;45.710;9.590;2022-12-20T12:54:01;50.35;;;28.17;;
72949;SDS011;64868;45.710;9.590;2022-12-20T12:56:50;49.15;;;29.30;;
72949;SDS011;64868;45.710;9.590;2022-12-20T12:59:22;47.03;;;26.95;;
72949;SDS011;64868;45.710;9.590;2022-12-20T13:10:01;46.83;;;28.42;;
72949;SDS011;64868;45.710;9.590;2022-12-20T13:12:57;48.08;;;27.58;;
72949;SDS011;64868;45.710;9.590;2022-12-20T13:17:50;49.53;;;29.48;;
72949;SDS011;64868;45.710;9.590;2022-12-20T13:25:41;43.58;;;26.98;;
72949;SDS011;64868;45.710;9.590;2022-12-20T13:30:40;131.95;;;57.22;;
72949;SDS011;64868;45.710;9.590;2022-12-20T13:49:27;52.75;;;29.50;;
72949;SDS011;64868;45.710;9.590;2022-12-20T13:54:42;48.88;;;30.17;;
72949;SDS011;64868;45.710;9.590;2022-12-20T13:57:16;65.00;;;33.42;;
72949;SDS011;64868;45.710;9.590;2022-12-20T13:59:47;63.03;;;33.78;;
72949;SDS011;64868;45.710;9.590;2022-12-20T14:02:21;54.33;;;30.83;;
72949;SDS011;64868;45.710;9.590;2022-12-20T14:08:00;50.72;;;28.80;;
72949;SDS011;64868;45.710;9.590;2022-12-20T14:10:30;47.35;;;27.48;;
72949;SDS011;64868;45.710;9.590;2022-12-20T14:12:57;50.03;;;27.63;;
72949;SDS011;64868;45.710;9.590;2022-12-20T14:17:49;44.97;;;27.17;;
72949;SDS011;64868;45.710;9.590;2022-12-20T14:20:16;50.83;;;27.67;;
72949;SDS011;64868;45.710;9.590;2022-12-20T14:25:27;45.47;;;28.00;;
72949;SDS011;64868;45.710;9.590;2022-12-20T14:27:59;44.90;;;27.58;;
72949;SDS011;64868;45.710;9.590;2022-12-20T14:30:32;44.72;;;27.65;;
72949;SDS011;64868;45.710;9.590;2022-12-20T14:33:12;44.78;;;27.25;;
72949;SDS011;64868;45.710;9.590;2022-12-20T14:35:47;47.20;;;26.85;;
72949;SDS011;64868;45.710;9.590;2022-12-20T14:38:19;45.90;;;26.83;;
72949;SDS011;64868;45.710;9.590;2022-12-20T14:40:46;51.45;;;26.92;;
72949;SDS011;64868;45.710;9.590;2022-12-20T14:43:20;44.45;;;26.35;;
72949;SDS011;64868;45.710;9.590;2022-12-20T14:46:05;48.13;;;27.20;;
72949;SDS011;64868;45.710;9.590;2022-12-20T14:48:32;47.30;;;27.75;;
72949;SDS011;64868;45.710;9.590;2022-12-20T14:50:57;45.33;;;25.55;;
72949;SDS011;64868;45.710;9.590;2022-12-20T14:53:23;46.72;;;25.83;;
72949;SDS011;64868;45.710;9.590;2022-12-20T14:55:54;44.20;;;25.13;;
72949;SDS011;64868;45.710;9.590;2022-12-20T14:58:21;43.03;;;26.40;;
72949;SDS011;64868;45.710;9.590;2022-12-20T15:03:51;45.20;;;27.65;;
72949;SDS011;64868;45.710;9.590;2022-12-20T15:06:32;46.60;;;26.63;;
72949;SDS011;64868;45.710;9.590;2022-12-20T15:09:01;52.63;;;28.85;;
72949;SDS011;64868;45.710;9.590;2022-12-20T15:11:29;46.60;;;26.27;;
72949;SDS011;64868;45.710;9.590;2022-12-20T15:13:55;48.45;;;27.30;;
72949;SDS011;64868;45.710;9.590;2022-12-20T15:16:22;45.47;;;28.13;;
72949;SDS011;64868;45.710;9.590;2022-12-20T15:18:57;42.30;;;25.33;;
72949;SDS011;64868;45.710;9.590;2022-12-20T15:23:53;44.80;;;26.13;;
72949;SDS011;64868;45.710;9.590;2022-12-20T15:26:21;49.10;;;27.55;;
72949;SDS011;64868;45.710;9.590;2022-12-20T15:28:49;47.90;;;27.75;;
72949;SDS011;64868;45.710;9.590;2022-12-20T15:31:15;46.33;;;27.65;;
72949;SDS011;64868;45.710;9.590;2022-12-20T15:33:43;45.92;;;27.23;;
72949;SDS011;64868;45.710;9.590;2022-12-20T15:36:12;48.60;;;28.10;;
72949;SDS011;64868;45.710;9.590;2022-12-20T15:38:41;45.75;;;27.75;;
72949;SDS011;64868;45.710;9.590;2022-12-20T15:41:07;46.88;;;28.35;;
72949;SDS011;64868;45.710;9.590;2022-12-20T15:43:41;44.75;;;26.52;;
72949;SDS011;64868;45.710;9.590;2022-12-20T15:46:06;43.25;;;25.77;;
72949;SDS011;64868;45.710;9.590;2022-12-20T15:48:32;43.42;;;25.77;;
72949;SDS011;64868;45.710;9.590;2022-12-20T15:50:57;45.85;;;25.63;;
72949;SDS011;64868;45.710;9.590;2022-12-20T15:53:29;45.25;;;25.65;;
72949;SDS011;64868;45.710;9.590;2022-12-20T15:55:56;42.95;;;24.38;;
72949;SDS011;64868;45.710;9.590;2022-12-20T15:58:23;43.97;;;25.45;;
72949;SDS011;64868;45.710;9.590;2022-12-20T16:00:50;47.65;;;26.73;;
72949;SDS011;64868;45.710;9.590;2022-12-20T16:03:19;43.40;;;27.23;;
72949;SDS011;64868;45.710;9.590;2022-12-20T16:05:47;46.00;;;27.35;;
72949;SDS011;64868;45.710;9.590;2022-12-20T16:08:13;52.72;;;31.27;;
72949;SDS011;64868;45.710;9.590;2022-12-20T16:10:40;44.90;;;27.42;;
72949;SDS011;64868;45.710;9.590;2022-12-20T16:13:08;46.97;;;27.25;;
72949;SDS011;64868;45.710;9.590;2022-12-20T16:15:38;46.00;;;26.42;;
72949;SDS011;64868;45.710;9.590;2022-12-20T16:18:04;44.40;;;26.63;;
72949;SDS011;64868;45.710;9.590;2022-12-20T16:20:29;48.40;;;27.63;;
72949;SDS011;64868;45.710;9.590;2022-12-20T16:22:55;41.88;;;26.38;;
72949;SDS011;64868;45.710;9.590;2022-12-20T16:25:24;49.47;;;28.20;;
72949;SDS011;64868;45.710;9.590;2022-12-20T16:27:51;53.45;;;30.60;;
72949;SDS011;64868;45.710;9.590;2022-12-20T16:30:17;54.65;;;30.10;;
72949;SDS011;64868;45.710;9.590;2022-12-20T16:32:43;71.70;;;40.88;;
72949;SDS011;64868;45.710;9.590;2022-12-20T16:35:16;59.85;;;33.10;;
72949;SDS011;64868;45.710;9.590;2022-12-20T16:37:46;50.47;;;30.13;;
72949;SDS011;64868;45.710;9.590;2022-12-20T16:40:12;46.00;;;28.08;;
72949;SDS011;64868;45.710;9.590;2022-12-20T16:42:39;42.30;;;26.20;;
72949;SDS011;64868;45.710;9.590;2022-12-20T16:45:05;49.72;;;28.30;;
72949;SDS011;64868;45.710;9.590;2022-12-20T16:47:30;51.70;;;29.67;;
72949;SDS011;64868;45.710;9.590;2022-12-20T16:49:56;47.35;;;27.65;;